Latest Weather Observations for Mangalore

IDV60801

Issued at 12:05 pm EST Saturday 2 August 2014 (issued every 30 minutes, with the page automatically refreshed every 10 minutes)

About weather observations | Map of weather stations | Latest weather observations for VIC | Other Formats
Station Details ID: 088109 Name: MANGALORE AIRPORT Lat: -36.89 Lon: 145.19 Height: 140.8 m
Data from the previous 72 hours. | See also: Recent months at Mangalore
Date/Time
EST
Temp
°C
App
Temp
°C
Dew
Point
Rel
Hum
%
Delta-T
°C
Wind Press
QNH
hPa
Press
MSL
hPa
Rain
since 9 am
mm
Dir
 
Spd
km/h
Gust
km/h
Spd
kts
Gust
kts
02/12:00pm 9.9 6.8 3.6 65 2.7 S 9 15 5 8 1030.8 1031.1 0.0
02/11:30am 8.7 5.9 2.9 67 2.5 SSW 7 11 4 6 1030.9 - 0.0
02/11:00am 8.6 5.9 3.6 71 2.2 WSW 7 11 4 6 1030.9 - 0.0
02/10:30am 7.2 4.4 3.1 75 1.7 WSW 7 9 4 5 1030.7 - 0.0
02/10:00am 6.8 5.0 3.2 78 1.5 WSW 2 6 1 3 1030.2 - 0.0
02/09:30am 4.5 2.2 2.7 88 0.7 WSW 4 7 2 4 1030.0 - 0.0
02/09:00am 3.7 2.2 3.1 96 0.2 CALM 0 7 0 4 1029.5 1029.8 0.2
02/08:30am 2.0 0.3 1.9 99 0.0 WSW 0 0 0 0 1029.0 - 0.2
02/08:00am -0.3 -3.7 -0.6 98 0.1 WSW 7 7 4 4 1028.7 - 0.0
02/07:30am -1.1 -4.4 -1.5 97 0.1 WSW 6 7 3 4 1028.3 - 0.0
02/07:00am -0.9 -4.2 -1.3 97 0.1 WSW 6 7 3 4 1027.5 - 0.0
02/06:30am -0.3 -3.1 -0.7 97 0.1 WSW 4 7 2 4 1026.8 - 0.0
02/06:00am -0.7 -4.5 -1.1 97 0.1 W 9 11 5 6 1026.3 1026.7 0.0
02/05:30am -0.5 -3.8 -1.1 96 0.2 W 6 7 3 4 1025.8 - 0.0
02/05:00am 0.2 -2.6 -0.4 96 0.2 W 4 7 2 4 1025.4 - 0.0
02/04:30am 0.4 -3.0 -0.3 95 0.3 W 7 9 4 5 1025.3 - 0.0
02/04:00am 0.6 -3.5 -0.1 95 0.3 W 11 13 6 7 1025.1 - 0.0
02/03:30am 1.1 -2.6 0.2 94 0.3 W 9 11 5 6 1024.7 - 0.0
02/03:00am 0.9 -3.2 0.0 94 0.3 W 11 13 6 7 1024.5 1024.8 0.0
02/02:30am 1.2 -1.9 0.3 94 0.3 W 6 6 3 3 1024.2 - 0.0
02/02:00am 1.5 -2.1 0.6 94 0.3 W 9 13 5 7 1023.8 - 0.0
02/01:30am 2.1 -1.4 1.2 94 0.3 W 9 13 5 7 1023.7 - 0.0
02/01:00am 2.5 -1.0 1.5 93 0.4 W 9 11 5 6 1023.5 - 0.0
02/12:30am 2.4 -1.5 1.4 93 0.4 W 11 15 6 8 1023.1 - 0.0
02/12:00am 2.2 -2.4 1.3 94 0.3 W 15 19 8 10 1022.9 1023.2 0.0
 
Date/Time
EST
Temp
°C
App
Temp
°C
Dew
Point
Rel
Hum
%
Delta-T
°C
Wind Press
QNH
hPa
Press
MSL
hPa
Rain
since 9 am
mm
Dir
 
Spd
km/h
Gust
km/h
Spd
kts
Gust
kts
01/11:30pm 1.7 -0.2 0.4 91 0.5 CALM 0 2 0 1 1022.4 - 0.0
01/11:00pm 2.8 -0.2 1.0 88 0.7 SW 6 6 3 3 1022.2 - 0.0
01/10:30pm 3.4 -0.9 1.0 84 0.9 SW 13 17 7 9 1021.8 - 0.0
01/10:00pm 4.3 -0.3 1.3 81 1.2 SSW 15 19 8 10 1021.4 - 0.0
01/09:30pm 4.8 0.2 1.6 80 1.3 SW 15 24 8 13 1021.1 - 0.0
01/09:00pm 4.2 0.3 1.4 82 1.1 SSW 11 17 6 9 1020.2 1020.5 0.0
01/08:30pm 4.4 -0.6 1.4 81 1.2 SW 17 24 9 13 1019.1 - 0.0
01/08:00pm 5.2 -1.5 1.5 77 1.5 SSW 26 33 14 18 1018.1 - 0.0
01/07:35pm 6.1 -1.0 1.4 72 1.9 SW 28 48 15 26 1018.2 - 0.0
01/07:30pm 6.7 0.7 1.2 68 2.2 SW 22 32 12 17 1018.0 - 0.0
01/07:00pm 5.7 0.8 2.0 77 1.5 W 17 22 9 12 1017.1 - 0.0
01/06:30pm 5.7 0.8 2.0 77 1.5 W 17 22 9 12 1016.2 - 0.0
01/06:00pm 5.5 1.0 2.0 78 1.4 WSW 15 20 8 11 1015.1 1015.4 0.0
01/05:30pm 6.4 0.9 1.7 72 1.9 WSW 20 24 11 13 1014.1 - 0.0
01/05:00pm 7.3 0.2 1.6 67 2.3 WSW 28 35 15 19 1013.2 - 0.0
01/04:45pm 7.3 0.3 1.8 68 2.3 WSW 28 50 15 27 1012.8 - 0.0
01/04:30pm 7.4 1.3 2.5 71 2.1 W 24 33 13 18 1012.6 - 0.0
01/04:00pm 6.9 1.2 2.6 74 1.8 WSW 22 32 12 17 1012.2 - 0.0
01/03:30pm 7.4 0.1 2.7 72 2.0 WSW 30 39 16 21 1011.1 - 0.0
01/03:00pm 8.0 0.1 2.0 66 2.5 WSW 33 44 18 24 1010.5 1010.8 0.0
01/02:30pm 9.1 1.9 2.9 65 2.7 WSW 30 46 16 25 1010.0 - 0.0
01/02:00pm 8.2 0.6 3.7 73 2.0 W 33 48 18 26 1009.2 - 0.0
01/01:30pm 7.6 1.5 2.7 71 2.1 WNW 24 35 13 19 1008.6 - 0.0
01/01:00pm 7.8 1.3 2.5 69 2.2 WNW 26 35 14 19 1008.6 - 0.0
01/12:30pm 7.9 1.5 3.0 71 2.1 W 26 37 14 20 1008.6 - 0.0
01/12:00pm 7.6 2.6 3.5 75 1.8 W 19 24 10 13 1008.7 1009.0 0.0
01/11:30am 6.6 1.4 2.7 76 1.6 NW 19 32 10 17 1008.3 - 0.0
01/11:00am 6.2 0.8 2.7 78 1.5 NW 20 30 11 16 1008.1 - 0.0
01/10:30am 5.9 0.2 3.1 82 1.2 NW 22 30 12 16 1007.9 - 0.0
01/10:00am 5.5 0.2 3.2 85 1.0 NW 20 32 11 17 1007.7 - 0.0
01/09:49am 5.5 0.4 3.3 86 0.9 NNW 19 28 10 15 1007.6 - 0.0
01/09:30am 5.1 0.4 3.1 87 0.8 NNW 17 24 9 13 1007.5 - 0.0
01/09:00am 4.6 -0.8 2.6 87 0.8 NW 20 30 11 16 1007.5 1007.7 3.6
01/08:30am 4.5 -0.9 2.7 88 0.7 NW 20 28 11 15 1007.4 - 3.6
01/08:00am 4.4 -0.4 2.8 89 0.7 N 17 24 9 13 1006.2 - 3.6
01/07:30am 4.5 -0.6 3.0 90 0.6 NNW 19 28 10 15 1006.4 - 3.6
01/07:00am 4.3 0.0 3.1 92 0.5 N 15 20 8 11 1006.3 - 3.6
01/06:34am 4.3 -0.1 2.8 90 0.6 NNW 15 20 8 11 1006.1 - 3.6
01/06:30am 4.2 -0.2 2.7 90 0.6 NNW 15 20 8 11 1006.1 - 3.6
01/06:00am 4.4 0.0 2.8 89 0.7 NNW 15 26 8 14 1005.8 1006.0 3.6
01/05:51am 4.5 0.5 3.0 90 0.6 NW 13 20 7 11 1005.9 - 3.6
01/05:30am 4.5 0.9 3.0 90 0.6 NNW 11 19 6 10 1005.9 - 3.6
01/05:00am 4.3 0.3 3.1 92 0.5 N 13 24 7 13 1005.6 - 3.6
01/04:32am 4.0 0.8 2.8 92 0.5 NNW 9 15 5 8 1005.6 - 3.6
01/04:30am 3.9 0.6 2.7 92 0.5 NNW 9 15 5 8 1005.5 - 3.6
01/04:00am 3.7 -0.8 2.4 91 0.5 NNW 15 19 8 10 1005.2 - 3.6
01/03:30am 3.9 -0.1 2.6 91 0.5 N 13 19 7 10 1005.3 - 3.6
01/03:00am 4.0 0.4 2.7 91 0.5 NNW 11 15 6 8 1005.3 1005.5 3.6
01/02:30am 4.1 0.1 2.6 90 0.6 NNW 13 22 7 12 1005.1 - 3.6
01/02:00am 3.9 0.6 2.3 89 0.6 NNW 9 13 5 7 1005.2 - 3.6
01/01:30am 4.5 0.9 2.7 88 0.7 NW 11 17 6 9 1005.2 - 3.6
01/01:00am 4.9 0.9 3.1 88 0.7 NW 13 19 7 10 1005.1 - 3.6
01/12:30am 4.2 0.7 3.5 95 0.3 NNW 11 15 6 8 1005.1 - 3.6
01/12:00am 4.9 1.9 4.0 94 0.4 NNW 9 13 5 7 1005.0 1005.2 3.6
 
Date/Time
EST
Temp
°C
App
Temp
°C
Dew
Point
Rel
Hum
%
Delta-T
°C
Wind Press
QNH
hPa
Press
MSL
hPa
Rain
since 9 am
mm
Dir
 
Spd
km/h
Gust
km/h
Spd
kts
Gust
kts
31/11:30pm 5.2 2.2 4.0 92 0.5 N 9 13 5 7 1004.7 - 3.6
31/11:00pm 5.7 0.8 4.2 90 0.6 W 19 24 10 13 1005.0 - 3.6
31/10:30pm 5.8 2.1 4.6 92 0.5 W 13 17 7 9 1005.0 - 2.8
31/10:27pm 5.8 1.7 4.4 91 0.6 WSW 15 17 8 9 1005.0 - 2.8
31/10:07pm 5.9 0.5 4.4 90 0.6 WSW 22 28 12 15 1004.8 - 2.0
31/10:00pm 6.8 3.0 5.9 94 0.4 WNW 15 20 8 11 1004.6 - 1.4
31/09:30pm 6.6 3.1 5.4 92 0.5 W 13 19 7 10 1003.9 - 1.4
31/09:00pm 6.9 3.0 5.5 91 0.6 WNW 15 20 8 11 1003.4 1003.8 1.4
31/08:30pm 7.2 3.0 5.7 90 0.7 WNW 17 22 9 12 1003.0 - 1.2
31/08:00pm 7.4 2.9 5.9 90 0.7 WNW 19 24 10 13 1003.0 - 1.0
31/07:30pm 7.5 2.9 5.5 87 0.9 W 19 26 10 14 1002.4 - 0.4
31/07:00pm 8.0 2.3 4.8 80 1.4 WSW 24 35 13 19 1002.2 - 0.2
31/06:31pm 8.9 0.9 3.9 71 2.2 WSW 35 54 19 29 1001.6 - 0.2
31/06:30pm 8.9 0.5 3.9 71 2.2 WSW 37 54 20 29 1001.6 - 0.2
31/06:01pm 10.3 -1.3 4.0 65 2.8 WSW 54 72 29 39 1000.4 - 0.2
31/06:00pm 10.4 -1.6 3.9 64 2.9 WSW 56 72 30 39 1000.3 1000.6 0.2
31/05:58pm 10.6 -1.0 4.1 64 2.9 WSW 54 72 29 39 1000.2 - 0.2
31/05:56pm 11.1 0.4 4.8 65 2.9 WSW 50 69 27 37 1000.1 - 0.2
31/05:48pm 14.7 6.5 5.0 52 4.6 W 37 69 20 37 999.3 - 0.2
31/05:30pm 16.3 10.1 4.4 45 5.6 NNW 26 35 14 19 998.0 - 0.2
31/05:00pm 16.2 9.2 4.3 45 5.6 NNW 30 46 16 25 997.9 - 0.2
31/04:33pm 16.6 8.6 4.0 43 5.9 NNW 35 54 19 29 998.2 - 0.2
31/04:30pm 16.8 8.5 4.2 43 5.9 NNW 37 54 20 29 998.2 - 0.2
31/04:00pm 17.4 7.7 4.0 41 6.3 NNW 44 65 24 35 998.8 - 0.2
31/03:30pm 17.7 7.2 3.9 40 6.5 NW 48 70 26 38 998.9 - 0.2
31/03:00pm 18.0 8.9 3.9 39 6.7 NNW 41 61 22 33 999.2 999.5 0.2
31/02:30pm 17.9 8.5 5.2 43 6.2 NW 44 67 24 36 999.2 - 0.2
31/02:00pm 17.5 5.9 4.1 41 6.3 NNW 54 82 29 44 999.2 - 0.2
31/01:30pm 17.3 7.0 4.6 43 6.1 NNW 48 69 26 37 999.7 - 0.0
31/01:10pm 17.2 7.4 5.2 45 5.8 NNW 46 80 25 43 1000.2 - 0.0
31/01:00pm 17.2 8.6 6.7 50 5.2 NNW 41 59 22 32 1000.7 - 0.0
31/12:39pm 16.4 7.7 6.0 50 5.1 NNW 41 59 22 32 1001.3 - 0.0
31/12:30pm 16.3 8.0 5.9 50 5.1 NNW 39 54 21 29 1001.7 - 0.0
31/12:12pm 16.1 8.2 6.3 52 4.8 NNW 37 57 20 31 1002.2 - 0.0
31/12:00pm 16.0 8.0 5.6 50 5.0 N 37 54 20 29 1002.4 1002.8 0.0
31/11:30am 15.7 6.7 6.4 54 4.6 NNW 43 61 23 33 1003.2 - 0.0
31/11:00am 14.9 7.1 6.5 57 4.1 NNW 37 57 20 31 1003.9 - 0.0
31/10:30am 14.6 7.2 6.7 59 3.9 NNW 35 57 19 31 1004.9 - 0.0
31/10:13am 14.3 8.2 6.6 60 3.7 N 28 50 15 27 1005.1 - 0.0
31/10:00am 13.5 7.6 7.3 66 3.0 N 28 39 15 21 1005.5 - 0.0
31/09:30am 13.0 7.1 7.5 69 2.7 N 28 37 15 20 1005.8 - 0.0
31/09:00am 11.9 6.5 8.0 77 1.9 N 26 33 14 18 1006.1 1006.4 0.6
31/08:30am 11.3 5.9 8.0 80 1.6 N 26 33 14 18 1006.6 - 0.6
31/08:00am 11.0 6.4 8.0 82 1.5 NNE 22 30 12 16 1007.1 - 0.6
31/07:30am 11.2 6.6 8.2 82 1.5 NNE 22 28 12 15 1007.3 - 0.6
31/07:00am 11.3 6.7 8.2 81 1.5 NNE 22 32 12 17 1007.7 - 0.6
31/06:30am 11.1 6.6 8.5 84 1.3 NNE 22 28 12 15 1007.9 - 0.6
31/06:00am 11.2 6.3 8.4 83 1.4 NNE 24 32 13 17 1008.1 1008.4 0.6
31/05:30am 11.3 6.4 8.3 82 1.5 NNE 24 30 13 16 1008.1 - 0.6
31/05:00am 11.6 6.7 8.5 81 1.5 NNE 24 33 13 18 1008.4 - 0.6
31/04:30am 11.0 6.5 8.6 85 1.2 NNE 22 28 12 15 1008.8 - 0.6
31/04:00am 10.6 6.6 8.4 86 1.1 NNE 19 22 10 12 1009.3 - 0.6
31/03:30am 10.5 6.9 8.3 86 1.1 NNE 17 20 9 11 1009.7 - 0.6
31/03:00am 10.9 7.2 8.0 82 1.4 N 17 22 9 12 1010.2 1010.6 0.6
31/02:30am 11.3 8.1 8.3 82 1.5 N 15 20 8 11 1010.8 - 0.6
31/02:00am 11.7 8.2 8.6 81 1.5 N 17 22 9 12 1011.1 - 0.6
31/01:30am 12.5 9.0 8.6 77 2.0 N 17 24 9 13 1011.4 - 0.6
31/01:00am 12.8 8.3 8.7 76 2.1 N 22 28 12 15 1011.8 - 0.6
31/12:30am 13.2 8.8 9.1 76 2.1 N 22 28 12 15 1012.1 - 0.6
31/12:00am 12.8 9.0 9.1 78 1.9 N 19 24 10 13 1012.3 1012.6 0.6
 
Date/Time
EST
Temp
°C
App
Temp
°C
Dew
Point
Rel
Hum
%
Delta-T
°C
Wind Press
QNH
hPa
Press
MSL
hPa
Rain
since 9 am
mm
Dir
 
Spd
km/h
Gust
km/h
Spd
kts
Gust
kts
30/11:30pm 13.0 9.2 9.1 77 2.0 N 19 26 10 14 1012.8 - 0.6
30/11:00pm 13.4 9.3 8.7 73 2.4 N 20 32 11 17 1013.0 - 0.6
30/10:30pm 13.4 9.0 8.9 74 2.3 N 22 32 12 17 1013.4 - 0.6
30/10:00pm 13.5 9.7 9.0 74 2.3 N 19 28 10 15 1013.6 - 0.6
30/09:30pm 13.6 9.9 9.3 75 2.2 N 19 26 10 14 1013.5 - 0.6
30/09:00pm 13.3 10.0 9.4 77 2.0 N 17 22 9 12 1013.6 1013.9 0.6
30/08:30pm 13.8 10.1 9.6 76 2.2 N 19 26 10 14 1013.7 - 0.6
30/08:00pm 13.9 10.3 9.7 76 2.2 N 19 28 10 15 1013.8 - 0.6
30/07:30pm 13.8 10.3 10.2 79 1.9 N 19 24 10 13 1013.8 - 0.6
30/07:00pm 13.6 10.6 10.8 83 1.5 N 17 24 9 13 1013.8 - 0.6
30/06:30pm 13.7 10.8 11.0 84 1.4 N 17 24 9 13 1013.7 - 0.6
30/06:00pm 13.7 10.8 10.9 83 1.5 N 17 24 9 13 1013.5 1013.8 0.6
30/05:30pm 13.7 10.7 10.7 82 1.6 N 17 20 9 11 1013.5 - 0.6
30/05:00pm 14.0 11.4 10.6 80 1.8 N 15 19 8 10 1013.4 - 0.6
30/04:30pm 14.3 11.3 10.5 78 2.0 N 17 24 9 13 1013.4 - 0.6
30/04:00pm 14.3 11.4 10.9 80 1.8 N 17 24 9 13 1013.4 - 0.6
30/03:30pm 14.5 11.7 11.3 81 1.7 NNW 17 22 9 12 1013.4 - 0.6
30/03:00pm 14.3 11.1 11.3 82 1.6 NNW 19 24 10 13 1013.5 1013.8 0.6
30/02:30pm 14.1 10.3 11.3 83 1.5 NNW 22 28 12 15 1013.6 - 0.6
30/02:00pm 13.7 10.5 11.9 89 1.0 NNW 20 28 11 15 1013.9 - 0.6
30/01:30pm 13.5 10.0 12.1 91 0.8 NNW 22 28 12 15 1014.1 - 0.6
30/01:12pm 13.3 10.6 13.0 98 0.2 NNW 19 24 10 13 1014.3 - 0.6
30/01:02pm 13.1 10.8 12.9 99 0.1 NNW 17 24 9 13 1014.6 - 0.6
30/01:00pm 12.8 10.8 12.6 99 0.1 NNW 15 24 8 13 1014.5 - 0.6
30/12:30pm 12.7 11.0 12.5 99 0.1 N 13 19 7 10 1014.9 - 0.4

Other Formats:

Comma delimited format used in spreadsheet applications
http://www.bom.gov.au/fwo/IDV60801/IDV60801.94874.axf

JavaScript Object Notation format (JSON) in row-major order
http://www.bom.gov.au/fwo/IDV60801/IDV60801.94874.json